Time;durP1;ratioP1;P1;durP2;ratioP2;P2;SDS_P1;SDS_P2;PMS_P1;PMS_P2;Temp;Humidity;BMP_temperature;BMP_pressure;BME280_temperature;BME280_humidity;BME280_pressure;Samples;Min_cycle;Max_cycle;Signal;HPM_P1;HPM_P2
2024/02/02 00:00:18;;;;;;;23.00;4.33;;;4.00;99.90;;;;;;4992060;28;20187;-83
2024/02/02 00:02:44;;;;;;;25.30;4.53;;;4.00;99.90;;;;;;4989646;28;20239;-83
2024/02/02 00:05:10;;;;;;;21.20;3.83;;;4.10;99.90;;;;;;4995104;28;20195;-86
2024/02/02 00:07:36;;;;;;;18.20;3.83;;;4.10;99.90;;;;;;4995512;28;20184;-84
2024/02/02 00:10:02;;;;;;;25.23;4.60;;;4.10;99.90;;;;;;5000265;28;20629;-84
2024/02/02 00:12:28;;;;;;;19.13;4.07;;;4.10;99.90;;;;;;4999789;28;20527;-84
2024/02/02 00:14:54;;;;;;;18.53;3.77;;;4.10;99.90;;;;;;4992587;28;20187;-83
2024/02/02 00:17:20;;;;;;;30.43;4.33;;;4.10;99.90;;;;;;4995099;28;20637;-84
2024/02/02 00:19:46;;;;;;;25.67;4.60;;;4.10;99.90;;;;;;4995345;28;20197;-82
2024/02/02 00:22:13;;;;;;;26.40;4.37;;;4.10;99.90;;;;;;5000508;28;20593;-83
2024/02/02 00:24:39;;;;;;;23.20;4.03;;;4.10;99.90;;;;;;4996319;28;20532;-82
2024/02/02 00:27:05;;;;;;;15.03;3.27;;;4.00;99.90;;;;;;5000542;28;20190;-83
2024/02/02 00:29:31;;;;;;;22.57;3.93;;;4.00;99.90;;;;;;4997797;28;20211;-83
2024/02/02 00:31:57;;;;;;;20.80;3.30;;;4.00;99.90;;;;;;4998085;28;20191;-85
2024/02/02 00:34:23;;;;;;;21.93;3.73;;;4.00;99.90;;;;;;4994436;28;20416;-83
2024/02/02 00:36:48;;;;;;;24.17;3.70;;;4.00;99.90;;;;;;4936194;28;1799141;-83
2024/02/02 00:39:14;;;;;;;27.13;4.83;;;4.00;99.90;;;;;;4996712;28;20195;-83
2024/02/02 00:41:40;;;;;;;25.63;4.20;;;4.00;99.90;;;;;;4995636;28;20583;-82
2024/02/02 00:44:07;;;;;;;19.00;3.83;;;4.10;99.90;;;;;;4995661;28;20187;-83
2024/02/02 00:46:32;;;;;;;22.23;3.70;;;4.10;99.90;;;;;;4993963;28;20677;-83
2024/02/02 00:48:58;;;;;;;23.77;3.90;;;4.10;99.90;;;;;;4991921;28;20215;-83
2024/02/02 00:51:24;;;;;;;29.10;4.33;;;4.10;99.90;;;;;;4992923;28;20199;-82
2024/02/02 00:53:50;;;;;;;19.40;3.87;;;4.10;99.90;;;;;;5004114;28;20254;-84
2024/02/02 00:56:16;;;;;;;18.53;4.13;;;4.20;99.90;;;;;;5008799;28;20591;-82
2024/02/02 00:58:41;;;;;;;27.20;4.07;;;4.20;99.90;;;;;;4995371;28;20390;-84
2024/02/02 01:01:07;;;;;;;30.47;4.70;;;4.10;99.90;;;;;;4998371;28;20191;-84
2024/02/02 01:03:37;;;;;;;19.93;3.80;;;4.10;99.90;;;;;;4991554;28;20222;-84
2024/02/02 01:06:05;;;;;;;19.67;3.93;;;4.10;99.90;;;;;;4997489;28;20241;-85
2024/02/02 01:08:31;;;;;;;22.33;3.97;;;4.10;99.90;;;;;;4994914;28;20645;-84
2024/02/02 01:10:57;;;;;;;21.50;4.27;;;4.10;99.90;;;;;;4996025;28;20196;-84
2024/02/02 01:13:23;;;;;;;24.37;4.53;;;4.20;99.90;;;;;;5009081;28;20258;-84
2024/02/02 01:15:49;;;;;;;22.90;4.40;;;4.20;99.90;;;;;;4998551;28;20194;-85
2024/02/02 01:18:16;;;;;;;24.57;4.63;;;4.20;99.90;;;;;;4991531;28;20190;-84
2024/02/02 01:20:42;;;;;;;18.27;4.83;;;4.20;99.90;;;;;;4993010;28;20556;-82
2024/02/02 01:23:09;;;;;;;20.07;4.50;;;4.20;99.90;;;;;;4995392;28;20341;-82
2024/02/02 01:25:35;;;;;;;21.97;4.90;;;4.30;99.90;;;;;;4995612;28;20188;-82
2024/02/02 01:28:01;;;;;;;34.10;4.63;;;4.30;99.90;;;;;;5004966;28;20561;-82
2024/02/02 01:30:30;;;;;;;22.70;4.23;;;4.30;99.90;;;;;;5004135;28;20293;-83
2024/02/02 01:32:58;;;;;;;22.20;4.53;;;4.30;99.90;;;;;;4995254;28;20184;-83
2024/02/02 01:35:25;;;;;;;26.13;4.70;;;4.40;99.90;;;;;;4995275;28;20246;-82
2024/02/02 01:37:51;;;;;;;20.77;3.90;;;4.40;99.90;;;;;;4994623;28;20274;-82
2024/02/02 01:40:18;;;;;;;23.87;5.03;;;4.40;99.90;;;;;;4991857;28;20227;-82
2024/02/02 01:42:44;;;;;;;20.93;4.00;;;4.50;99.90;;;;;;4994964;28;20183;-84
2024/02/02 01:45:10;;;;;;;16.43;4.30;;;4.40;99.90;;;;;;4994631;28;20583;-83
2024/02/02 01:47:36;;;;;;;18.77;4.27;;;4.50;99.90;;;;;;4992244;28;20279;-82
2024/02/02 01:50:02;;;;;;;23.33;4.70;;;4.50;99.90;;;;;;5003512;28;20310;-82
2024/02/02 01:52:29;;;;;;;26.60;4.90;;;4.50;99.90;;;;;;5000988;28;20320;-82
2024/02/02 01:54:56;;;;;;;19.17;4.37;;;4.50;99.90;;;;;;4997400;28;20199;-82
2024/02/02 01:57:22;;;;;;;25.13;5.40;;;4.50;99.90;;;;;;4987594;28;20221;-83
2024/02/02 01:59:48;;;;;;;25.97;5.03;;;4.50;99.90;;;;;;4996121;28;20214;-83
2024/02/02 02:02:14;;;;;;;16.13;4.53;;;4.50;99.90;;;;;;5002808;28;20179;-83
2024/02/02 02:04:41;;;;;;;19.80;4.90;;;4.50;99.90;;;;;;4999608;28;20192;-84
2024/02/02 02:07:07;;;;;;;32.37;5.10;;;4.50;99.90;;;;;;4992572;28;20529;-83
2024/02/02 02:09:34;;;;;;;24.23;4.53;;;4.50;99.90;;;;;;4994977;28;20281;-84
2024/02/02 02:12:02;;;;;;;22.00;5.00;;;4.50;99.90;;;;;;4994227;28;20199;-83
2024/02/02 02:14:29;;;;;;;25.57;4.93;;;4.50;99.90;;;;;;4999556;28;20204;-83
2024/02/02 02:16:55;;;;;;;26.13;4.90;;;4.60;99.90;;;;;;4994015;28;20187;-83
2024/02/02 02:19:21;;;;;;;20.97;3.87;;;4.60;99.90;;;;;;5001839;28;20221;-83
2024/02/02 02:21:47;;;;;;;19.70;4.90;;;4.60;99.90;;;;;;4996860;28;20237;-84
2024/02/02 02:24:13;;;;;;;18.73;4.20;;;4.60;99.90;;;;;;5001316;28;20182;-83
2024/02/02 02:26:39;;;;;;;26.53;5.03;;;4.60;99.90;;;;;;4990895;28;20187;-83
2024/02/02 02:29:05;;;;;;;20.13;4.50;;;4.60;99.90;;;;;;4991631;28;20270;-84
2024/02/02 02:31:31;;;;;;;20.10;5.40;;;4.60;99.90;;;;;;5009415;28;20183;-83
2024/02/02 02:33:57;;;;;;;22.83;5.10;;;4.60;99.90;;;;;;4993373;28;20202;-83
2024/02/02 02:36:23;;;;;;;22.97;4.43;;;4.50;99.90;;;;;;4998903;28;20230;-83
2024/02/02 02:38:50;;;;;;;26.50;4.93;;;4.50;99.90;;;;;;4993130;28;20270;-83
2024/02/02 02:41:16;;;;;;;23.20;4.80;;;4.50;99.90;;;;;;5006736;28;20190;-84
2024/02/02 02:43:42;;;;;;;20.43;4.83;;;4.60;99.90;;;;;;5000971;28;20518;-82
2024/02/02 02:46:08;;;;;;;26.67;5.13;;;4.60;99.90;;;;;;5008440;28;20214;-84
2024/02/02 02:48:34;;;;;;;18.87;4.43;;;4.60;99.90;;;;;;4991809;28;20188;-85
2024/02/02 02:51:00;;;;;;;19.87;4.57;;;4.60;99.90;;;;;;4992375;28;20195;-84
2024/02/02 02:53:26;;;;;;;19.27;4.57;;;4.60;99.90;;;;;;5000080;28;20238;-83
2024/02/02 02:55:52;;;;;;;17.93;4.47;;;4.60;99.90;;;;;;5008520;28;20187;-85
2024/02/02 02:58:18;;;;;;;20.00;4.63;;;4.50;99.90;;;;;;4991615;28;20210;-85
2024/02/02 03:00:44;;;;;;;16.23;5.10;;;4.50;99.90;;;;;;4998631;28;20210;-84
2024/02/02 03:03:11;;;;;;;19.50;5.00;;;4.50;99.90;;;;;;4994139;28;20198;-83
2024/02/02 03:05:37;;;;;;;25.60;4.87;;;4.50;99.90;;;;;;5002495;28;20187;-84
2024/02/02 03:08:07;;;;;;;21.43;5.40;;;4.50;99.90;;;;;;4992668;28;20203;-85
2024/02/02 03:13:17;;;;;;;17.50;4.97;;;4.40;99.90;;;;;;5388397;22;20240;-95
2024/02/02 03:15:43;;;;;;;19.53;6.03;;;4.40;99.90;;;;;;4985442;28;20199;-93
2024/02/02 03:18:10;;;;;;;26.40;6.03;;;4.40;99.90;;;;;;4986949;28;20177;-95
2024/02/02 03:20:36;;;;;;;23.33;5.90;;;4.40;99.90;;;;;;4977629;28;20247;-93
2024/02/02 03:23:01;;;;;;;23.20;5.80;;;4.40;99.90;;;;;;4986137;28;20304;-95
2024/02/02 03:25:27;;;;;;;22.40;6.10;;;4.40;99.90;;;;;;4977798;28;20185;-95
2024/02/02 03:27:53;;;;;;;22.30;6.37;;;4.40;99.90;;;;;;4977900;28;20635;-95
2024/02/02 03:30:19;;;;;;;28.97;7.23;;;4.40;99.90;;;;;;4989140;28;20212;-94
2024/02/02 03:32:45;;;;;;;20.80;6.73;;;4.40;99.90;;;;;;4981790;28;20181;-95
2024/02/02 03:35:10;;;;;;;28.90;7.30;;;4.40;99.90;;;;;;4980531;28;20195;-95
2024/02/02 03:37:36;;;;;;;28.13;7.00;;;4.40;99.90;;;;;;4988930;28;20187;-96
2024/02/02 03:40:04;;;;;;;27.93;7.67;;;4.40;99.90;;;;;;4981888;28;20184;-93
2024/02/02 03:42:30;;;;;;;22.33;7.27;;;4.40;99.90;;;;;;4988863;28;20242;-96
2024/02/02 03:44:57;;;;;;;27.10;7.67;;;4.40;99.90;;;;;;4989949;28;20191;-96
2024/02/02 03:47:24;;;;;;;29.27;7.87;;;4.40;99.90;;;;;;4992361;28;20197;-93
2024/02/02 03:49:49;;;;;;;27.00;8.23;;;4.40;99.90;;;;;;4980327;28;20208;-96
2024/02/02 03:52:15;;;;;;;21.00;7.47;;;4.40;99.90;;;;;;4984839;28;20503;-95
2024/02/02 03:54:41;;;;;;;29.00;8.47;;;4.40;99.90;;;;;;4985251;28;20809;-95
2024/02/02 03:57:07;;;;;;;29.87;8.47;;;4.40;99.90;;;;;;4978636;28;20627;-96
2024/02/02 03:59:33;;;;;;;24.43;8.17;;;4.40;99.90;;;;;;4984014;28;20176;-91
2024/02/02 04:01:58;;;;;;;28.90;8.73;;;4.40;99.90;;;;;;4986898;28;20231;-96
2024/02/02 04:04:24;;;;;;;24.40;7.90;;;4.40;99.90;;;;;;4986292;28;20188;-93
2024/02/02 04:06:50;;;;;;;25.87;7.53;;;4.40;99.90;;;;;;4984609;28;20193;-96
2024/02/02 04:09:17;;;;;;;26.80;7.77;;;4.40;99.90;;;;;;4985131;28;20627;-96
2024/02/02 04:11:42;;;;;;;23.70;7.30;;;4.40;99.90;;;;;;4985244;28;20188;-93
2024/02/02 04:14:08;;;;;;;22.40;6.80;;;4.40;99.90;;;;;;4985441;28;20204;-95
2024/02/02 04:16:34;;;;;;;22.60;7.17;;;4.30;99.90;;;;;;4991064;28;20523;-94
2024/02/02 04:19:00;;;;;;;18.30;6.63;;;4.40;99.90;;;;;;4987708;28;20619;-96
2024/02/02 04:21:26;;;;;;;24.13;8.27;;;4.40;99.90;;;;;;4977147;28;20191;-96
2024/02/02 04:23:51;;;;;;;26.97;6.60;;;4.40;99.90;;;;;;4980003;28;20188;-96
2024/02/02 04:26:17;;;;;;;21.00;7.10;;;4.40;99.90;;;;;;4977282;28;20188;-92
2024/02/02 04:28:43;;;;;;;20.03;6.10;;;4.40;99.90;;;;;;4976158;28;20193;-94
2024/02/02 04:31:09;;;;;;;19.20;6.23;;;4.50;99.90;;;;;;4988077;28;20196;-94
2024/02/02 04:33:34;;;;;;;24.00;6.87;;;4.40;99.90;;;;;;4990928;28;20633;-92
2024/02/02 04:36:00;;;;;;;21.10;6.57;;;4.50;99.90;;;;;;4987544;28;20188;-93
2024/02/02 04:38:26;;;;;;;22.30;6.10;;;4.40;99.90;;;;;;4990764;28;20188;-94
2024/02/02 04:40:52;;;;;;;22.77;7.90;;;4.50;99.90;;;;;;4976426;28;20188;-95
2024/02/02 04:43:17;;;;;;;15.63;6.23;;;4.50;99.90;;;;;;4989074;28;20258;-94
2024/02/02 04:45:43;;;;;;;22.90;6.50;;;4.50;99.90;;;;;;4988137;28;20687;-95
2024/02/02 04:48:09;;;;;;;20.30;5.67;;;4.50;99.90;;;;;;4983898;28;20196;-94
2024/02/02 04:50:35;;;;;;;19.77;6.87;;;4.50;99.90;;;;;;4975912;28;20216;-96
2024/02/02 04:53:01;;;;;;;22.83;6.33;;;4.50;99.90;;;;;;4976062;28;20195;-93
2024/02/02 04:55:26;;;;;;;20.10;7.30;;;4.50;99.90;;;;;;4976022;28;20199;-93
2024/02/02 04:57:52;;;;;;;18.93;7.33;;;4.50;99.90;;;;;;4985113;28;20192;-93
2024/02/02 05:00:18;;;;;;;26.00;7.50;;;4.60;99.90;;;;;;4987570;28;20190;-93
2024/02/02 05:02:45;;;;;;;26.13;6.67;;;4.60;99.90;;;;;;4996377;28;20188;-96
2024/02/02 05:05:10;;;;;;;22.10;7.00;;;4.60;99.90;;;;;;4987389;28;20665;-92
2024/02/02 05:07:36;;;;;;;19.90;6.83;;;4.60;99.90;;;;;;4987418;28;20287;-93
2024/02/02 05:10:04;;;;;;;24.27;7.17;;;4.60;99.90;;;;;;4985550;28;20223;-95
2024/02/02 05:12:30;;;;;;;27.80;9.10;;;4.60;99.90;;;;;;4980317;28;20242;-94
2024/02/02 05:14:56;;;;;;;20.50;7.47;;;4.60;99.90;;;;;;4985726;28;20282;-90
2024/02/02 05:17:22;;;;;;;26.30;8.33;;;4.60;99.90;;;;;;4976966;28;20272;-93
2024/02/02 05:19:48;;;;;;;22.83;8.20;;;4.60;99.90;;;;;;4983694;28;20653;-91
2024/02/02 05:22:14;;;;;;;26.17;9.13;;;4.60;99.90;;;;;;4976029;28;20200;-93
2024/02/02 05:24:40;;;;;;;20.63;8.30;;;4.60;99.90;;;;;;4975519;28;20196;-94
2024/02/02 05:27:05;;;;;;;33.70;9.97;;;4.60;99.90;;;;;;4975207;28;20537;-92
2024/02/02 05:29:31;;;;;;;29.67;9.07;;;4.60;99.90;;;;;;4984478;28;20219;-93
2024/02/02 05:31:57;;;;;;;26.60;9.30;;;4.70;99.90;;;;;;4986200;28;20192;-90
2024/02/02 05:34:23;;;;;;;25.97;10.00;;;4.60;99.90;;;;;;4988483;28;20193;-93
2024/02/02 05:36:48;;;;;;;23.87;9.70;;;4.60;99.90;;;;;;4984306;28;20184;-91
2024/02/02 05:39:14;;;;;;;30.30;10.27;;;4.70;99.90;;;;;;5007678;28;20650;-93
2024/02/02 05:41:40;;;;;;;32.20;10.73;;;4.60;99.90;;;;;;4982186;28;20199;-94
2024/02/02 05:44:06;;;;;;;27.47;10.27;;;4.60;99.90;;;;;;4987436;28;20177;-92
2024/02/02 05:46:32;;;;;;;25.20;10.37;;;4.70;99.90;;;;;;4988153;28;20202;-92
2024/02/02 05:48:57;;;;;;;26.43;10.27;;;4.70;99.90;;;;;;4988602;28;20208;-93
2024/02/02 05:51:23;;;;;;;22.57;10.53;;;4.70;99.90;;;;;;4994999;28;20242;-91
2024/02/02 05:53:49;;;;;;;25.93;10.43;;;4.70;99.90;;;;;;4978159;28;20236;-89
2024/02/02 05:56:15;;;;;;;30.43;11.30;;;4.70;99.90;;;;;;4982486;28;20650;-92
2024/02/02 05:58:41;;;;;;;32.20;10.97;;;4.70;99.90;;;;;;4974866;28;20192;-93
2024/02/02 06:01:06;;;;;;;27.57;11.87;;;4.80;99.90;;;;;;4996316;28;20506;-90
2024/02/02 06:03:32;;;;;;;31.47;12.03;;;4.70;99.90;;;;;;4989025;28;20188;-95
2024/02/02 06:05:58;;;;;;;28.27;11.50;;;4.70;99.90;;;;;;4985105;28;20243;-95
2024/02/02 06:08:24;;;;;;;34.93;12.10;;;4.80;99.90;;;;;;4990650;28;20172;-95
2024/02/02 06:10:50;;;;;;;21.83;11.13;;;4.80;99.90;;;;;;4982930;28;20215;-92
2024/02/02 06:13:18;;;;;;;24.87;12.50;;;4.70;99.90;;;;;;4985698;28;20228;-92
2024/02/02 06:15:44;;;;;;;21.67;10.47;;;4.80;99.90;;;;;;4980238;28;20184;-93
2024/02/02 06:18:10;;;;;;;30.07;12.23;;;4.80;99.90;;;;;;4982295;28;20449;-95
2024/02/02 06:20:35;;;;;;;24.30;11.80;;;4.80;99.90;;;;;;4980572;28;20263;-94
2024/02/02 06:23:01;;;;;;;31.37;13.53;;;4.70;99.90;;;;;;4979113;28;20184;-96
2024/02/02 06:25:27;;;;;;;28.90;12.37;;;4.70;99.90;;;;;;4998352;28;20220;-95
2024/02/02 06:27:53;;;;;;;32.33;12.73;;;4.70;99.90;;;;;;4981272;28;20177;-94
2024/02/02 06:30:19;;;;;;;35.03;13.77;;;4.80;99.90;;;;;;4982007;28;20222;-96
2024/02/02 06:32:49;;;;;;;26.90;12.20;;;4.80;99.90;;;;;;4990353;28;20188;-94
2024/02/02 06:35:18;;;;;;;32.17;12.23;;;4.80;99.90;;;;;;4993996;28;20639;-95
2024/02/02 06:37:43;;;;;;;30.67;12.53;;;4.80;99.90;;;;;;4987215;28;20623;-94
2024/02/02 06:40:10;;;;;;;24.03;11.80;;;4.80;99.90;;;;;;4982739;28;20203;-95
2024/02/02 06:42:36;;;;;;;27.93;12.97;;;4.80;99.90;;;;;;4982075;28;20196;-96
2024/02/02 06:45:02;;;;;;;24.97;12.07;;;4.80;99.90;;;;;;4986004;28;20207;-92
2024/02/02 06:47:28;;;;;;;29.50;12.00;;;4.90;99.90;;;;;;4985007;28;20531;-96
2024/02/02 06:49:53;;;;;;;24.23;11.57;;;4.80;99.90;;;;;;4979571;28;20310;-92
2024/02/02 06:52:21;;;;;;;26.17;11.57;;;4.90;99.90;;;;;;4980404;28;20180;-96
2024/02/02 06:54:47;;;;;;;27.73;11.37;;;4.90;99.90;;;;;;4988651;28;20196;-94
2024/02/02 06:57:14;;;;;;;19.60;10.30;;;4.80;99.90;;;;;;4997008;28;20182;-96
2024/02/02 06:59:43;;;;;;;23.67;10.63;;;4.90;99.90;;;;;;5001108;28;20541;-96
2024/02/02 07:02:35;;;;;;;22.47;9.60;;;4.80;99.90;;;;;;5002966;28;20528;-96
2024/02/02 07:05:02;;;;;;;21.87;10.07;;;4.80;99.90;;;;;;4994209;28;20207;-94
2024/02/02 07:07:28;;;;;;;26.40;10.80;;;4.80;99.90;;;;;;5003124;28;20211;-93
2024/02/02 07:09:56;;;;;;;22.37;10.03;;;4.80;99.90;;;;;;5000199;28;20215;-96
2024/02/02 07:12:51;;;;;;;22.87;10.20;;;4.90;99.90;;;;;;5013229;28;20242;-96
2024/02/02 07:15:19;;;;;;;22.87;10.47;;;4.90;99.90;;;;;;5015017;28;20519;-94
2024/02/02 07:17:46;;;;;;;23.17;10.20;;;4.90;99.90;;;;;;5004337;28;20207;-90
2024/02/02 07:20:25;;;;;;;23.20;10.20;;;4.80;99.90;;;;;;5004361;28;20191;-96
2024/02/02 07:22:52;;;;;;;23.50;10.53;;;4.80;99.90;;;;;;5016726;28;20188;-94
2024/02/02 07:25:20;;;;;;;26.90;10.23;;;4.80;99.90;;;;;;5009485;28;20187;-94
2024/02/02 07:28:05;;;;;;;25.20;10.00;;;4.80;99.90;;;;;;4998338;28;20219;-95
2024/02/02 07:30:43;;;;;;;22.37;9.20;;;4.80;99.90;;;;;;5096506;22;20238;-95
2024/02/02 07:33:45;;;;;;;24.37;9.17;;;4.80;99.90;;;;;;5019267;28;20207;-94
2024/02/02 07:36:32;;;;;;;22.50;10.37;;;4.80;99.90;;;;;;5018023;28;20245;-94
2024/02/02 07:41:37;;;;;;;20.83;9.37;;;4.90;99.90;;;;;;4996197;28;20600;-96
2024/02/02 07:44:03;;;;;;;24.07;9.53;;;4.90;99.90;;;;;;4998036;28;20287;-96
2024/02/02 07:46:35;;;;;;;23.57;9.90;;;4.90;99.90;;;;;;4998712;28;20180;-96
2024/02/02 07:49:03;;;;;;;21.13;9.10;;;5.00;99.90;;;;;;4979834;28;20205;-96
2024/02/02 07:51:37;;;;;;;20.90;9.80;;;5.00;99.90;;;;;;4979418;28;20181;-95
2024/02/02 07:54:04;;;;;;;21.97;8.23;;;5.00;99.90;;;;;;4978952;28;20618;-95
2024/02/02 07:56:31;;;;;;;20.17;9.03;;;5.00;99.90;;;;;;4979413;28;20204;-96
2024/02/02 07:58:58;;;;;;;19.43;7.93;;;5.00;99.90;;;;;;4979565;28;20205;-96
2024/02/02 08:01:33;;;;;;;18.47;7.23;;;5.10;99.90;;;;;;4979229;28;20180;-94
2024/02/02 08:04:00;;;;;;;20.10;7.47;;;5.10;99.90;;;;;;4977226;28;20239;-95
2024/02/02 08:06:35;;;;;;;26.03;6.97;;;5.10;99.90;;;;;;4977646;28;20273;-95
2024/02/02 08:09:20;;;;;;;20.63;7.00;;;5.10;99.90;;;;;;4976849;28;20204;-95
2024/02/02 08:11:48;;;;;;;20.30;6.50;;;5.20;99.90;;;;;;4977214;28;20247;-96
2024/02/02 08:14:16;;;;;;;24.93;7.57;;;5.20;99.90;;;;;;4979473;28;20180;-95
2024/02/02 08:16:49;;;;;;;20.37;7.33;;;5.20;99.90;;;;;;4980122;28;20268;-96
2024/02/02 08:19:15;;;;;;;16.93;6.30;;;5.20;99.90;;;;;;4979057;28;20219;-96
2024/02/02 08:21:54;;;;;;;16.60;5.43;;;5.30;99.90;;;;;;4979584;28;20652;-95
2024/02/02 08:24:22;;;;;;;21.57;6.43;;;5.30;99.90;;;;;;4979295;28;20184;-95
2024/02/02 08:26:59;;;;;;;21.13;6.00;;;5.30;99.90;;;;;;4977282;28;20180;-94
2024/02/02 08:29:30;;;;;;;16.93;5.73;;;5.30;99.90;;;;;;4978734;28;20208;-96
2024/02/02 08:31:57;;;;;;;24.90;5.93;;;5.40;99.90;;;;;;4977048;28;20177;-96
2024/02/02 08:34:27;;;;;;;23.27;5.63;;;5.30;99.90;;;;;;4976600;28;20176;-94
2024/02/02 08:37:01;;;;;;;21.40;6.37;;;5.40;99.90;;;;;;4976322;28;20208;-95
2024/02/02 08:39:38;;;;;;;23.33;6.23;;;5.40;99.90;;;;;;4976011;28;20323;-96
2024/02/02 08:42:23;;;;;;;15.17;5.60;;;5.40;99.90;;;;;;4977031;28;20181;-95
2024/02/02 08:45:00;;;;;;;24.37;6.07;;;5.50;99.90;;;;;;4976261;28;20184;-94
2024/02/02 08:47:34;;;;;;;13.70;5.07;;;5.50;99.90;;;;;;4976364;28;20204;-95
2024/02/02 08:50:21;;;;;;;;;;;;;;;;;;;;;
2024/02/02 08:52:49;;;;;;;22.57;5.53;;;5.60;99.90;;;;;;4977708;28;20744;-96
2024/02/02 08:55:37;;;;;;;19.43;5.20;;;5.60;99.90;;;;;;4977967;28;20169;-96
2024/02/02 08:58:30;;;;;;;18.43;6.40;;;5.70;99.90;;;;;;4976443;28;20200;-96
2024/02/02 09:04:05;;;;;;;18.17;4.77;;;5.80;99.90;;;;;;4978528;28;20164;-95
2024/02/02 09:06:56;;;;;;;18.77;5.03;;;5.90;99.90;;;;;;4976544;28;20173;-95
2024/02/02 09:09:23;;;;;;;17.17;5.80;;;5.90;99.90;;;;;;4975547;28;20201;-94
2024/02/02 09:12:01;;;;;;;18.57;5.40;;;6.00;99.90;;;;;;4975529;28;20173;-94
2024/02/02 09:14:28;;;;;;;26.67;4.17;;;6.00;99.90;;;;;;4975652;28;20161;-95
2024/02/02 09:17:25;;;;;;;19.80;4.70;;;6.10;99.90;;;;;;4975915;28;20169;-95
2024/02/02 09:19:55;;;;;;;21.77;5.43;;;6.10;99.90;;;;;;4976091;28;20169;-96
2024/02/02 09:22:40;;;;;;;23.03;5.10;;;6.10;99.90;;;;;;4976126;28;20216;-95
2024/02/02 09:25:09;;;;;;;13.63;4.80;;;6.10;99.90;;;;;;4975759;28;20172;-94
2024/02/02 09:27:42;;;;;;;19.20;5.43;;;6.10;99.90;;;;;;4975891;28;20211;-95
2024/02/02 09:30:23;;;;;;;15.80;4.67;;;6.10;99.90;;;;;;4975701;28;20201;-95
2024/02/02 09:32:49;;;;;;;18.97;4.97;;;6.20;99.90;;;;;;4975944;28;20708;-94
2024/02/02 09:35:56;;;;;;;17.30;5.13;;;6.20;99.90;;;;;;4975571;28;20256;-94
2024/02/02 09:38:27;;;;;;;13.00;4.47;;;6.30;99.90;;;;;;4957922;28;20204;-94
2024/02/02 09:41:07;;;;;;;16.87;5.30;;;6.30;99.90;;;;;;4976971;28;20327;-95
2024/02/02 09:46:58;;;;;;;19.20;5.77;;;6.30;99.90;;;;;;4976610;28;20524;-95
2024/02/02 09:50:18;;;;;;;16.03;4.53;;;6.30;99.90;;;;;;4975288;28;20672;-94
2024/02/02 09:52:50;;;;;;;19.63;4.93;;;6.40;99.90;;;;;;4975485;28;20223;-94
2024/02/02 09:55:38;;;;;;;22.80;5.10;;;6.30;99.90;;;;;;4975651;28;20183;-94
2024/02/02 09:58:32;;;;;;;14.73;4.87;;;6.30;99.90;;;;;;4975240;28;20201;-94
2024/02/02 10:01:35;;;;;;;25.27;5.50;;;6.30;99.90;;;;;;4977132;28;20176;-94
2024/02/02 10:04:43;;;;;;;22.47;5.70;;;6.30;99.90;;;;;;4975189;28;20263;-94
2024/02/02 10:11:20;;;;;;;19.20;5.50;;;6.40;99.90;;;;;;4975888;28;20687;-94
2024/02/02 10:14:40;;;;;;;17.80;5.23;;;6.60;99.90;;;;;;4990095;28;20536;-95
2024/02/02 10:17:32;;;;;;;19.80;5.03;;;6.50;99.90;;;;;;4993966;28;20663;-94
2024/02/02 10:20:08;;;;;;;19.10;5.97;;;6.60;99.90;;;;;;4994483;28;20567;-94
2024/02/02 10:23:07;;;;;;;21.30;5.20;;;6.60;99.90;;;;;;4994934;28;20264;-94
2024/02/02 10:26:05;;;;;;;21.57;5.13;;;6.60;99.90;;;;;;4955701;28;20169;-95
2024/02/02 10:28:46;;;;;;;14.10;5.30;;;6.70;99.90;;;;;;4956069;28;20211;-94
2024/02/02 10:34:24;;;;;;;20.70;5.80;;;6.80;99.90;;;;;;4956660;28;20161;-95
2024/02/02 10:37:17;;;;;;;18.07;5.30;;;6.70;99.90;;;;;;4956072;28;20166;-94
2024/02/02 10:40:20;;;;;;;18.27;5.33;;;6.70;99.90;;;;;;4954866;28;20323;-95
2024/02/02 10:42:52;;;;;;;16.47;5.33;;;6.70;99.90;;;;;;4931470;29;20185;-94
2024/02/02 10:45:51;;;;;;;16.73;6.10;;;6.70;99.90;;;;;;4955335;28;20173;-94
2024/02/02 10:49:00;;;;;;;19.73;6.47;;;6.80;99.90;;;;;;4958632;28;20355;-94
2024/02/02 10:51:54;;;;;;;17.40;5.90;;;6.70;99.90;;;;;;4971055;28;20177;-95
2024/02/02 10:54:53;;;;;;;19.73;5.63;;;6.80;99.90;;;;;;4956131;29;20169;-96
2024/02/02 10:57:32;;;;;;;16.73;6.13;;;6.70;99.90;;;;;;4955586;28;20292;-95
2024/02/02 11:00:17;;;;;;;19.30;6.23;;;6.60;99.90;;;;;;4993072;28;20271;-94
2024/02/02 11:03:40;;;;;;;19.87;6.33;;;6.60;99.90;;;;;;4994634;28;20168;-94
2024/02/02 11:06:48;;;;;;;23.57;5.67;;;6.60;99.90;;;;;;4993721;28;20192;-94
2024/02/02 11:16:05;;;;;;;15.27;6.20;;;6.60;99.90;;;;;;4995478;28;20612;-95
2024/02/02 11:18:51;;;;;;;15.23;5.97;;;6.60;99.90;;;;;;4993830;28;20196;-95
2024/02/02 11:21:42;;;;;;;22.40;6.00;;;6.60;99.90;;;;;;4993409;28;20243;-95
2024/02/02 11:24:26;;;;;;;17.97;5.70;;;6.70;99.90;;;;;;4993301;28;20226;-95
2024/02/02 11:27:08;;;;;;;19.73;6.70;;;6.60;99.90;;;;;;4992955;28;20176;-94
2024/02/02 11:30:06;;;;;;;24.93;7.33;;;6.60;99.90;;;;;;4993555;28;20207;-95
2024/02/02 11:33:09;;;;;;;21.53;6.60;;;6.70;99.90;;;;;;4980526;28;20184;-95
2024/02/02 11:36:00;;;;;;;20.87;6.70;;;6.70;99.90;;;;;;4977877;28;20573;-94
2024/02/02 11:39:14;;;;;;;28.03;6.80;;;6.70;99.90;;;;;;4962868;28;20208;-94
2024/02/02 11:41:41;;;;;;;19.57;6.30;;;6.70;99.90;;;;;;4980439;28;20216;-94
2024/02/02 11:44:11;;;;;;;21.07;7.23;;;6.70;99.90;;;;;;4990198;28;20177;-93
2024/02/02 11:46:38;;;;;;;18.63;6.70;;;6.70;99.90;;;;;;4977321;28;20187;-93
2024/02/02 11:49:22;;;;;;;13.73;6.03;;;6.70;99.90;;;;;;4976978;28;20216;-95
2024/02/02 11:51:54;;;;;;;18.33;7.33;;;6.80;99.90;;;;;;4977303;28;20177;-95
2024/02/02 11:54:38;;;;;;;23.00;7.27;;;6.70;99.90;;;;;;4977528;28;20200;-94
2024/02/02 11:57:07;;;;;;;19.43;6.80;;;6.70;99.90;;;;;;4977262;28;20236;-95
2024/02/02 12:00:06;;;;;;;17.33;6.30;;;6.70;99.90;;;;;;4977040;28;20264;-95
2024/02/02 12:05:58;;;;;;;23.53;7.27;;;6.70;99.90;;;;;;4919358;29;20217;-95
2024/02/02 12:09:01;;;;;;;17.57;6.90;;;6.70;99.90;;;;;;4977100;28;20307;-95
2024/02/02 12:11:48;;;;;;;19.20;7.03;;;6.70;99.90;;;;;;4973961;28;20238;-96
2024/02/02 12:14:30;;;;;;;19.60;6.90;;;6.70;99.90;;;;;;4976995;28;20648;-94
2024/02/02 12:16:58;;;;;;;24.23;7.27;;;6.70;99.90;;;;;;4977140;28;20204;-94
2024/02/02 12:19:31;;;;;;;24.17;7.60;;;6.70;99.90;;;;;;4977025;28;20255;-94
2024/02/02 12:21:57;;;;;;;24.10;7.67;;;6.80;99.90;;;;;;4976895;28;20320;-96
2024/02/02 12:24:31;;;;;;;17.90;7.17;;;6.80;99.90;;;;;;4976600;28;20180;-94
2024/02/02 12:26:58;;;;;;;25.37;7.87;;;6.70;99.90;;;;;;4976535;28;20189;-95
2024/02/02 12:29:26;;;;;;;19.13;6.93;;;6.70;99.90;;;;;;4976802;28;20201;-94
2024/02/02 12:31:51;;;;;;;19.07;7.30;;;6.70;99.90;;;;;;4977125;28;20192;-94
2024/02/02 12:34:21;;;;;;;18.07;7.00;;;6.70;99.90;;;;;;4977427;28;20177;-94
2024/02/02 12:36:47;;;;;;;22.13;7.77;;;6.70;99.90;;;;;;4977328;28;20652;-94
2024/02/02 12:39:31;;;;;;;21.50;7.37;;;6.70;99.90;;;;;;4976299;28;20295;-94
2024/02/02 12:42:16;;;;;;;22.70;7.07;;;6.70;99.90;;;;;;4977597;28;20215;-95
2024/02/02 12:44:42;;;;;;;22.13;7.33;;;6.70;99.90;;;;;;4975293;28;20192;-95
2024/02/02 12:47:10;;;;;;;18.93;6.73;;;6.70;99.90;;;;;;4975993;28;20177;-95
2024/02/02 12:49:39;;;;;;;23.47;7.63;;;6.80;99.90;;;;;;4976220;28;20196;-94
2024/02/02 12:52:06;;;;;;;28.00;7.90;;;6.70;99.90;;;;;;4976290;28;20631;-95
2024/02/02 12:54:37;;;;;;;16.83;6.83;;;6.80;99.90;;;;;;4976129;28;20161;-95
2024/02/02 12:57:04;;;;;;;23.47;7.60;;;6.80;99.90;;;;;;4976237;28;20227;-95
2024/02/02 12:59:38;;;;;;;21.90;7.77;;;6.70;99.90;;;;;;4976139;28;20169;-95
2024/02/02 13:02:05;;;;;;;23.77;7.90;;;6.80;99.90;;;;;;4976355;28;20169;-96
2024/02/02 13:04:32;;;;;;;16.83;7.13;;;6.80;99.90;;;;;;4980641;28;20250;-95
2024/02/02 13:06:58;;;;;;;19.87;6.87;;;6.90;99.90;;;;;;4979403;28;20176;-94
2024/02/02 13:09:31;;;;;;;23.73;7.20;;;6.90;99.90;;;;;;4984630;28;20200;-94
2024/02/02 13:12:00;;;;;;;19.17;6.90;;;6.90;99.90;;;;;;4997668;28;20167;-96
2024/02/02 13:14:45;;;;;;;24.80;7.93;;;6.90;99.90;;;;;;4991270;28;20188;-94
2024/02/02 13:17:15;;;;;;;21.03;7.70;;;6.80;99.90;;;;;;4993711;28;20203;-95
2024/02/02 13:19:45;;;;;;;24.47;7.60;;;6.90;99.90;;;;;;4995167;28;20628;-94
2024/02/02 13:22:22;;;;;;;21.57;7.00;;;6.90;99.90;;;;;;4987508;28;20243;-94
2024/02/02 13:24:49;;;;;;;24.00;8.27;;;6.90;99.90;;;;;;4976918;28;20232;-96
2024/02/02 13:27:48;;;;;;;21.30;7.57;;;6.90;99.90;;;;;;4985421;28;20208;-96
2024/02/02 13:30:22;;;;;;;21.60;7.63;;;6.90;99.90;;;;;;4984969;28;20609;-95
2024/02/02 13:32:52;;;;;;;18.63;7.63;;;7.00;99.90;;;;;;4984836;28;20172;-94
2024/02/02 13:35:31;;;;;;;20.50;8.20;;;7.00;99.90;;;;;;4983362;28;20165;-94
2024/02/02 13:37:57;;;;;;;19.37;7.67;;;7.00;99.90;;;;;;4982707;28;20216;-93